createdAt,value
2024-05-09T00:00:35.837Z,12.41
2024-05-09T00:03:10.186Z,12.36
2024-05-09T00:05:38.613Z,12.42
2024-05-09T00:08:06.756Z,12.37
2024-05-09T00:10:37.229Z,12.21
2024-05-09T00:13:09.957Z,12.32
2024-05-09T00:15:37.316Z,12.15
2024-05-09T00:18:04.992Z,12.24
2024-05-09T00:20:38.400Z,12.24
2024-05-09T00:23:13.825Z,12.11
2024-05-09T00:25:42.929Z,12.14
2024-05-09T00:28:09.896Z,12.01
2024-05-09T00:30:37.418Z,11.90
2024-05-09T00:33:08.965Z,11.78
2024-05-09T00:35:37.077Z,11.75
2024-05-09T00:38:04.381Z,11.83
2024-05-09T00:40:40.054Z,11.66
2024-05-09T00:43:10.489Z,11.77
2024-05-09T00:45:37.252Z,11.66
2024-05-09T00:48:08.392Z,11.78
2024-05-09T00:50:39.636Z,11.69
2024-05-09T00:53:08.349Z,11.54
2024-05-09T00:55:36.025Z,11.70
2024-05-09T00:58:04.091Z,11.57
2024-05-09T01:00:37.959Z,11.62
2024-05-09T01:03:07.143Z,11.61
2024-05-09T01:05:34.704Z,11.64
2024-05-09T01:08:01.805Z,11.33
2024-05-09T01:10:34.094Z,11.59
2024-05-09T01:13:03.184Z,11.58
2024-05-09T01:15:29.682Z,11.53
2024-05-09T01:17:57.684Z,11.44
2024-05-09T01:20:36.390Z,11.56
2024-05-09T01:23:08.217Z,11.57
2024-05-09T01:25:35.535Z,11.57
2024-05-09T01:28:02.377Z,11.32
2024-05-09T01:30:34.608Z,11.21
2024-05-09T01:33:04.438Z,11.32
2024-05-09T01:35:31.544Z,11.42
2024-05-09T01:37:58.112Z,11.41
2024-05-09T01:40:33.581Z,11.20
2024-05-09T01:43:04.833Z,11.35
2024-05-09T01:45:31.465Z,11.29
2024-05-09T01:47:58.379Z,11.34
2024-05-09T01:50:34.091Z,11.27
2024-05-09T01:53:05.480Z,11.08
2024-05-09T01:55:32.112Z,10.95
2024-05-09T01:57:58.623Z,11.11
2024-05-09T02:00:37.079Z,11.09
2024-05-09T02:03:14.346Z,11.09
2024-05-09T02:05:44.277Z,11.04
2024-05-09T02:08:15.601Z,10.95
2024-05-09T02:10:44.058Z,10.72
2024-05-09T02:13:10.916Z,10.80
2024-05-09T02:15:37.476Z,10.68
2024-05-09T02:18:04.568Z,10.71
2024-05-09T02:20:36.166Z,10.58
2024-05-09T02:23:05.202Z,10.48
2024-05-09T02:25:32.783Z,10.45
2024-05-09T02:27:59.627Z,10.23
2024-05-09T02:30:35.918Z,10.46
2024-05-09T02:33:06.897Z,10.45
2024-05-09T02:35:33.869Z,10.39
2024-05-09T02:38:00.610Z,10.50
2024-05-09T02:40:35.678Z,10.35
2024-05-09T02:43:04.841Z,10.24
2024-05-09T02:45:31.371Z,10.19
2024-05-09T02:47:58.242Z,10.26
2024-05-09T02:50:33.526Z,10.19
2024-05-09T02:53:04.947Z,10.19
2024-05-09T02:55:31.633Z,10.02
2024-05-09T02:57:58.184Z,10.25
2024-05-09T03:00:34.193Z,10.09
2024-05-09T03:03:06.039Z,9.97
2024-05-09T03:05:33.114Z,9.99
2024-05-09T03:07:59.875Z,9.98
2024-05-09T03:10:29.018Z,10.02
2024-05-09T03:13:05.799Z,9.83
2024-05-09T03:15:33.008Z,9.61
2024-05-09T03:18:00.939Z,9.72
2024-05-09T03:20:33.392Z,9.75
2024-05-09T03:23:02.287Z,9.95
2024-05-09T03:25:29.004Z,9.96
2024-05-09T03:27:55.587Z,9.72
2024-05-09T03:30:31.116Z,9.78
2024-05-09T03:33:14.128Z,9.72
2024-05-09T03:35:41.816Z,9.79
2024-05-09T03:38:08.693Z,9.77
2024-05-09T03:40:35.503Z,9.68
2024-05-09T03:43:02.039Z,9.61
2024-05-09T03:45:28.544Z,9.61
2024-05-09T03:47:55.283Z,9.73
2024-05-09T03:50:29.995Z,9.54
2024-05-09T03:53:01.354Z,9.46
2024-05-09T03:55:28.454Z,9.65
2024-05-09T03:57:55.129Z,9.55
2024-05-09T04:00:30.757Z,9.59
2024-05-09T04:03:03.956Z,9.49
2024-05-09T04:05:31.216Z,9.60
2024-05-09T04:07:58.291Z,9.66
2024-05-09T04:10:32.377Z,9.63
2024-05-09T04:13:00.642Z,9.65
2024-05-09T04:15:27.228Z,9.53
2024-05-09T04:17:54.037Z,9.68
2024-05-09T04:20:32.378Z,9.67
2024-05-09T04:23:05.420Z,9.62
2024-05-09T04:25:32.151Z,9.60
2024-05-09T04:27:58.684Z,9.66
2024-05-09T04:30:34.570Z,9.79
2024-05-09T04:33:05.882Z,9.73
2024-05-09T04:35:32.754Z,9.85
2024-05-09T04:37:59.444Z,9.92
2024-05-09T04:40:33.025Z,10.04
2024-05-09T04:43:03.048Z,10.01
2024-05-09T04:45:29.565Z,10.43
2024-05-09T04:47:56.296Z,10.71
2024-05-09T04:50:30.314Z,11.24
2024-05-09T04:53:03.583Z,11.49
2024-05-09T04:55:30.424Z,11.97
2024-05-09T04:57:56.975Z,12.17
2024-05-09T05:00:32.386Z,12.31
2024-05-09T05:03:06.815Z,12.57
2024-05-09T05:05:34.531Z,12.67
2024-05-09T05:08:01.206Z,13.04
2024-05-09T05:10:33.851Z,13.24
2024-05-09T05:13:23.766Z,13.44
2024-05-09T05:15:58.280Z,13.61
2024-05-09T05:18:26.883Z,13.91
2024-05-09T05:20:55.417Z,13.97
2024-05-09T05:23:23.142Z,14.06
2024-05-09T05:25:52.407Z,14.17
2024-05-09T05:28:19.880Z,14.22
2024-05-09T05:30:46.522Z,14.22
2024-05-09T05:33:15.449Z,14.71
2024-05-09T05:35:42.414Z,14.56
2024-05-09T05:38:10.101Z,14.70
2024-05-09T05:40:38.685Z,14.70
2024-05-09T05:43:10.521Z,14.73
2024-05-09T05:45:37.694Z,14.89
2024-05-09T05:48:06.355Z,15.12
2024-05-09T05:50:36.760Z,15.23
2024-05-09T05:53:10.285Z,15.22
2024-05-09T05:55:39.318Z,15.29
2024-05-09T05:58:08.914Z,15.23
2024-05-09T06:00:38.988Z,15.21
2024-05-09T06:03:07.902Z,15.44
2024-05-09T06:05:36.306Z,15.30
2024-05-09T06:08:02.892Z,15.68
2024-05-09T06:10:37.617Z,15.97
2024-05-09T06:13:06.748Z,15.59
2024-05-09T06:15:33.346Z,16.01
2024-05-09T06:18:00.093Z,15.92
2024-05-09T06:20:34.836Z,15.62
2024-05-09T06:23:04.385Z,15.21
2024-05-09T06:25:31.331Z,15.85
2024-05-09T06:27:57.950Z,15.76
2024-05-09T06:30:30.941Z,15.87
2024-05-09T06:33:06.085Z,15.85
2024-05-09T06:35:33.383Z,16.13
2024-05-09T06:38:00.172Z,15.92
2024-05-09T06:40:35.996Z,15.92
2024-05-09T06:43:05.233Z,15.99
2024-05-09T06:45:31.859Z,15.65
2024-05-09T06:47:58.522Z,15.76
2024-05-09T06:50:28.361Z,16.01
2024-05-09T06:52:58.419Z,16.02
2024-05-09T06:55:24.990Z,16.02
2024-05-09T06:57:51.540Z,15.89
2024-05-09T07:00:26.881Z,16.16
2024-05-09T07:02:59.018Z,16.06
2024-05-09T07:05:26.832Z,16.26
2024-05-09T07:07:53.711Z,16.13
2024-05-09T07:10:28.475Z,16.20
2024-05-09T07:12:59.305Z,16.42
2024-05-09T07:15:25.829Z,16.59
2024-05-09T07:17:52.613Z,16.68
2024-05-09T07:20:27.594Z,16.58
2024-05-09T07:23:05.494Z,16.58
2024-05-09T07:25:32.121Z,16.61
2024-05-09T07:27:58.755Z,16.88
2024-05-09T07:30:32.711Z,16.82
2024-05-09T07:33:01.513Z,16.85
2024-05-09T07:35:28.919Z,16.69
2024-05-09T07:37:55.658Z,17.02
2024-05-09T07:40:31.850Z,17.09
2024-05-09T07:43:07.474Z,16.98
2024-05-09T07:52:23.643Z,17.48
2024-05-09T07:53:38.694Z,17.71
2024-05-09T07:56:07.936Z,17.84
2024-05-09T07:58:35.556Z,17.68
2024-05-09T08:01:05.037Z,17.89
2024-05-09T08:03:31.939Z,17.95
2024-05-09T08:05:58.520Z,18.14
2024-05-09T08:08:25.049Z,18.54
2024-05-09T08:10:51.786Z,18.64
2024-05-09T08:13:18.512Z,18.78
2024-05-09T08:15:45.213Z,19.12
2024-05-09T08:18:12.207Z,19.08
2024-05-09T08:20:39.618Z,19.00
2024-05-09T08:23:06.414Z,19.17
2024-05-09T08:25:33.238Z,18.98
2024-05-09T08:27:59.923Z,18.98
2024-05-09T08:30:33.409Z,19.10
2024-05-09T08:33:04.617Z,19.39
2024-05-09T08:35:31.861Z,19.43
2024-05-09T08:37:58.596Z,19.11
2024-05-09T08:40:32.918Z,19.21
2024-05-09T08:43:02.867Z,19.24
2024-05-09T08:45:30.214Z,19.46
2024-05-09T08:48:01.449Z,19.52
2024-05-09T08:50:35.898Z,19.73
2024-05-09T08:53:05.859Z,19.66
2024-05-09T08:55:32.644Z,20.01
2024-05-09T08:58:01.678Z,19.98
2024-05-09T09:00:36.096Z,20.38
2024-05-09T09:03:06.796Z,19.66
2024-05-09T09:05:38.566Z,20.23
2024-05-09T09:08:09.028Z,19.82
2024-05-09T09:10:37.859Z,20.13
2024-05-09T09:13:07.153Z,20.53
2024-05-09T09:15:33.796Z,20.72
2024-05-09T09:18:01.318Z,20.07
2024-05-09T09:20:35.782Z,20.11
2024-05-09T09:23:04.466Z,20.01
2024-05-09T09:25:31.390Z,20.29
2024-05-09T09:27:58.425Z,20.56
2024-05-09T09:30:35.034Z,20.41
2024-05-09T09:33:04.725Z,20.41
2024-05-09T09:35:31.492Z,20.52
2024-05-09T09:38:02.477Z,20.46
2024-05-09T09:40:37.164Z,20.54
2024-05-09T09:43:14.967Z,20.26
2024-05-09T09:45:43.535Z,20.58
2024-05-09T09:48:10.812Z,20.37
2024-05-09T09:50:37.702Z,20.49
2024-05-09T09:53:07.010Z,20.64
2024-05-09T09:55:34.708Z,21.22
2024-05-09T09:58:01.474Z,21.70
2024-05-09T10:00:32.960Z,20.96
2024-05-09T10:03:01.129Z,21.00
2024-05-09T10:05:28.661Z,20.79
2024-05-09T10:07:56.614Z,21.73
2024-05-09T10:10:31.572Z,21.24
2024-05-09T10:13:07.271Z,21.55
2024-05-09T10:15:50.236Z,21.94
2024-05-09T10:18:17.430Z,21.03
2024-05-09T10:20:45.102Z,21.45
2024-05-09T10:23:30.865Z,21.42
2024-05-09T10:26:01.841Z,21.29
2024-05-09T10:28:32.812Z,20.97
2024-05-09T10:31:09.747Z,20.82
2024-05-09T10:33:48.580Z,20.93
2024-05-09T10:36:19.432Z,21.17
2024-05-09T10:38:46.034Z,20.64
2024-05-09T10:41:12.797Z,20.95
2024-05-09T10:43:40.916Z,21.09
2024-05-09T10:46:08.126Z,21.38
2024-05-09T10:48:36.737Z,22.09
2024-05-09T10:51:04.333Z,21.26
2024-05-09T10:53:48.960Z,21.15
2024-05-09T10:56:16.318Z,21.37
2024-05-09T10:58:43.011Z,21.82
2024-05-09T11:01:10.840Z,21.18
2024-05-09T11:03:38.419Z,21.22
2024-05-09T11:06:06.391Z,21.61
2024-05-09T11:08:34.000Z,21.52
2024-05-09T11:11:02.801Z,21.36
2024-05-09T11:13:34.760Z,22.15
2024-05-09T11:16:02.169Z,22.74
2024-05-09T11:18:33.523Z,22.17
2024-05-09T11:21:02.925Z,21.76
2024-05-09T11:23:32.594Z,22.46
2024-05-09T11:25:59.470Z,21.75
2024-05-09T11:28:29.216Z,21.79
2024-05-09T11:31:08.946Z,21.37
2024-05-09T11:33:38.339Z,21.69
2024-05-09T11:36:06.221Z,21.80
2024-05-09T11:38:33.117Z,21.38
2024-05-09T11:40:59.622Z,21.68
2024-05-09T11:43:26.143Z,21.43
2024-05-09T11:45:52.860Z,21.69
2024-05-09T11:48:19.713Z,21.82
2024-05-09T11:50:46.345Z,21.62
2024-05-09T11:53:12.875Z,21.61
2024-05-09T11:55:39.376Z,22.25
2024-05-09T11:58:05.971Z,21.95
2024-05-09T12:00:36.990Z,21.83
2024-05-09T12:03:05.686Z,22.02
2024-05-09T12:05:33.992Z,22.34
2024-05-09T12:08:01.128Z,22.31
2024-05-09T12:10:33.211Z,22.39
2024-05-09T12:13:02.690Z,22.40
2024-05-09T12:15:29.845Z,22.42
2024-05-09T12:17:59.013Z,22.20
2024-05-09T12:20:35.425Z,21.84
2024-05-09T12:23:05.314Z,21.64
2024-05-09T12:25:31.887Z,21.99
2024-05-09T12:27:58.489Z,22.02
2024-05-09T12:30:35.246Z,22.20
2024-05-09T12:33:05.799Z,22.09
2024-05-09T12:35:32.689Z,22.36
2024-05-09T12:37:59.222Z,22.52
2024-05-09T12:40:34.395Z,22.20
2024-05-09T12:43:05.030Z,21.83
2024-05-09T12:45:31.948Z,22.00
2024-05-09T12:47:58.850Z,21.95
2024-05-09T12:50:31.936Z,21.86
2024-05-09T12:53:00.821Z,21.85
2024-05-09T12:55:28.464Z,21.87
2024-05-09T12:57:57.237Z,22.08
2024-05-09T13:00:31.059Z,21.93
2024-05-09T13:03:00.546Z,22.04
2024-05-09T13:05:27.532Z,22.22
2024-05-09T13:07:54.269Z,21.83
2024-05-09T13:10:29.015Z,22.07
2024-05-09T13:13:00.003Z,21.97
2024-05-09T13:15:27.012Z,22.35
2024-05-09T13:17:54.813Z,22.12
2024-05-09T13:20:29.458Z,21.69
2024-05-09T13:23:01.854Z,21.83
2024-05-09T13:25:28.500Z,21.87
2024-05-09T13:27:55.909Z,22.01
2024-05-09T13:30:29.601Z,22.01
2024-05-09T13:33:05.544Z,22.04
2024-05-09T13:35:34.372Z,22.41
2024-05-09T13:38:02.039Z,22.43
2024-05-09T13:40:33.639Z,22.23
2024-05-09T13:43:02.688Z,22.26
2024-05-09T13:45:29.411Z,22.10
2024-05-09T13:47:56.424Z,22.49
2024-05-09T13:50:31.294Z,22.18
2024-05-09T13:53:02.144Z,22.24
2024-05-09T13:55:28.839Z,22.43
2024-05-09T13:57:56.129Z,22.35
2024-05-09T14:00:33.196Z,22.28
2024-05-09T14:03:09.711Z,22.44
2024-05-09T14:05:36.522Z,22.34
2024-05-09T14:08:03.273Z,22.34
2024-05-09T14:10:31.856Z,22.46
2024-05-09T14:12:59.250Z,22.29
2024-05-09T14:15:25.871Z,22.37
2024-05-09T14:17:52.509Z,22.16
2024-05-09T14:20:28.582Z,22.65
2024-05-09T14:22:58.234Z,22.77
2024-05-09T14:25:26.461Z,22.57
2024-05-09T14:27:53.969Z,22.72
2024-05-09T14:30:30.140Z,22.77
2024-05-09T14:33:02.555Z,22.19
2024-05-09T14:35:29.180Z,22.37
2024-05-09T14:37:55.721Z,22.16
2024-05-09T14:40:35.508Z,22.10
2024-05-09T14:43:07.421Z,22.20
2024-05-09T14:45:34.643Z,22.53
2024-05-09T14:48:02.277Z,22.50
2024-05-09T14:50:35.431Z,22.16
2024-05-09T14:53:06.385Z,22.58
2024-05-09T14:55:35.715Z,22.39
2024-05-09T14:58:03.229Z,22.44
2024-05-09T15:00:35.577Z,22.81
2024-05-09T15:03:03.623Z,22.68
2024-05-09T15:05:30.446Z,22.77
2024-05-09T15:07:57.944Z,22.61
2024-05-09T15:10:33.490Z,22.67
2024-05-09T15:13:02.398Z,22.55
2024-05-09T15:15:29.077Z,22.22
2024-05-09T15:17:55.963Z,22.21
2024-05-09T15:20:31.028Z,22.32
2024-05-09T15:23:02.044Z,22.47
2024-05-09T15:25:28.746Z,22.64
2024-05-09T15:27:55.518Z,22.42
2024-05-09T15:32:51.936Z,22.51
2024-05-09T15:35:18.527Z,22.38
2024-05-09T15:37:48.123Z,22.35
2024-05-09T15:40:18.916Z,22.47
2024-05-09T15:42:53.244Z,22.52
2024-05-09T15:45:19.811Z,22.45
2024-05-09T15:47:46.767Z,22.49
2024-05-09T15:50:20.444Z,22.38
2024-05-09T15:52:54.778Z,22.47
2024-05-09T15:55:21.308Z,22.17
2024-05-09T15:57:48.062Z,22.23
2024-05-09T16:00:24.663Z,22.49
2024-05-09T16:03:00.073Z,22.21
2024-05-09T16:05:27.033Z,22.37
2024-05-09T16:07:54.008Z,22.23
2024-05-09T16:10:25.855Z,22.46
2024-05-09T16:12:58.430Z,22.25
2024-05-09T16:15:25.161Z,22.31
2024-05-09T16:17:51.830Z,22.42
2024-05-09T16:20:29.395Z,22.37
2024-05-09T16:23:04.798Z,22.20
2024-05-09T16:25:31.460Z,22.13
2024-05-09T16:27:58.247Z,22.03
2024-05-09T16:30:31.724Z,22.11
2024-05-09T16:33:02.131Z,22.27
2024-05-09T16:35:28.852Z,22.09
2024-05-09T16:37:55.559Z,22.33
2024-05-09T16:40:30.114Z,22.40
2024-05-09T16:43:04.651Z,22.49
2024-05-09T16:45:31.695Z,22.25
2024-05-09T16:47:59.363Z,22.22
2024-05-09T16:50:31.131Z,22.22
2024-05-09T16:53:00.236Z,22.06
2024-05-09T16:55:27.242Z,22.03
2024-05-09T16:57:54.629Z,22.13
2024-05-09T17:00:31.253Z,22.15
2024-05-09T17:03:06.649Z,22.03
2024-05-09T17:05:34.055Z,21.95
2024-05-09T17:08:01.228Z,22.02
2024-05-09T17:10:32.662Z,21.84
2024-05-09T17:13:01.858Z,21.87
2024-05-09T17:15:28.667Z,21.86
2024-05-09T17:17:55.853Z,21.74
2024-05-09T17:20:29.664Z,21.89
2024-05-09T17:23:01.649Z,21.83
2024-05-09T17:25:28.358Z,21.77
2024-05-09T17:27:55.306Z,21.72
2024-05-09T17:30:29.046Z,21.78
2024-05-09T17:33:02.040Z,21.49
2024-05-09T17:35:28.845Z,21.65
2024-05-09T17:37:55.609Z,21.50
2024-05-09T17:40:30.788Z,21.46
2024-05-09T17:43:01.210Z,21.40
2024-05-09T17:45:27.959Z,21.27
2024-05-09T17:47:54.925Z,21.46
2024-05-09T17:50:27.647Z,21.52
2024-05-09T17:53:00.799Z,21.34
2024-05-09T17:55:27.582Z,21.17
2024-05-09T17:57:54.430Z,21.05
2024-05-09T18:00:29.251Z,20.93
2024-05-09T18:03:04.170Z,21.18
2024-05-09T18:05:31.046Z,21.60
2024-05-09T18:07:57.919Z,21.55
2024-05-09T18:10:32.559Z,21.22
2024-05-09T18:13:03.234Z,20.88
2024-05-09T18:15:29.897Z,21.08
2024-05-09T18:17:56.620Z,20.92
2024-05-09T18:20:32.795Z,20.73
2024-05-09T18:23:07.595Z,20.75
2024-05-09T18:25:34.206Z,20.76
2024-05-09T18:28:02.747Z,20.32
2024-05-09T18:30:34.695Z,20.21
2024-05-09T18:33:04.729Z,20.00
2024-05-09T18:35:32.339Z,20.07
2024-05-09T18:37:59.003Z,19.86
2024-05-09T18:40:32.661Z,19.70
2024-05-09T18:43:03.406Z,19.55
2024-05-09T18:45:30.223Z,19.70
2024-05-09T18:47:56.955Z,19.19
2024-05-09T18:50:32.028Z,19.39
2024-05-09T18:53:03.459Z,18.99
2024-05-09T18:55:29.961Z,18.84
2024-05-09T18:57:56.893Z,18.29
2024-05-09T19:00:33.138Z,18.57
2024-05-09T19:03:05.457Z,18.32
2024-05-09T19:05:33.213Z,18.36
2024-05-09T19:08:00.241Z,17.88
2024-05-09T19:10:33.688Z,17.82
2024-05-09T19:13:04.395Z,18.06
2024-05-09T19:15:33.800Z,17.70
2024-05-09T19:18:00.705Z,18.13
2024-05-09T19:20:33.158Z,18.22
2024-05-09T19:23:01.319Z,18.19
2024-05-09T19:25:27.846Z,18.18
2024-05-09T19:27:54.424Z,17.92
2024-05-09T19:30:29.738Z,17.81
2024-05-09T19:33:04.531Z,17.93
2024-05-09T19:35:31.210Z,17.83
2024-05-09T19:37:58.018Z,17.72
2024-05-09T19:40:30.469Z,17.44
2024-05-09T19:42:59.347Z,17.55
2024-05-09T19:45:34.587Z,17.34
2024-05-09T19:48:09.821Z,17.28
2024-05-09T19:50:45.445Z,17.45
2024-05-09T19:53:16.548Z,17.71
2024-05-09T19:55:47.517Z,17.66
2024-05-09T19:58:21.060Z,17.57
2024-05-09T20:00:58.832Z,17.67
2024-05-09T20:03:44.647Z,17.67
2024-05-09T20:06:19.857Z,17.29
2024-05-09T20:08:53.700Z,17.54
2024-05-09T20:11:39.587Z,17.38
2024-05-09T20:14:08.690Z,17.40
2024-05-09T20:16:53.983Z,17.21
2024-05-09T20:19:36.490Z,16.66
2024-05-09T20:22:24.937Z,16.55
2024-05-09T20:24:54.486Z,16.61
2024-05-09T20:30:14.330Z,16.45
2024-05-09T20:32:50.670Z,16.56
2024-05-09T20:35:25.004Z,16.34
2024-05-09T20:37:54.956Z,16.16
2024-05-09T20:40:32.381Z,16.30
2024-05-09T20:43:11.495Z,16.33
2024-05-09T20:45:40.864Z,16.18
2024-05-09T20:48:10.565Z,16.25
2024-05-09T20:50:41.343Z,16.03
2024-05-09T20:53:13.667Z,15.97
2024-05-09T20:55:42.987Z,15.69
2024-05-09T20:58:14.351Z,15.56
2024-05-09T21:00:44.768Z,15.56
2024-05-09T21:03:21.523Z,15.59
2024-05-09T21:06:15.844Z,15.60
2024-05-09T21:09:00.480Z,15.40
2024-05-09T21:11:37.483Z,15.39
2024-05-09T21:16:58.290Z,15.32
2024-05-09T21:19:25.063Z,15.27
2024-05-09T21:21:54.865Z,15.19
2024-05-09T21:24:21.371Z,15.00
2024-05-09T21:26:47.911Z,15.06
2024-05-09T21:29:14.447Z,14.87
2024-05-09T21:31:42.175Z,14.89
2024-05-09T21:34:08.846Z,14.70
2024-05-09T21:36:35.506Z,14.68
2024-05-09T21:39:02.031Z,14.55
2024-05-09T21:41:28.587Z,14.55
2024-05-09T21:43:55.112Z,14.57
2024-05-09T21:46:21.746Z,14.42
2024-05-09T21:48:48.504Z,14.72
2024-05-09T21:51:15.920Z,14.40
2024-05-09T21:53:42.488Z,14.46
2024-05-09T21:56:08.997Z,14.36
2024-05-09T21:58:35.506Z,14.23
2024-05-09T22:01:03.709Z,14.22
2024-05-09T22:03:30.419Z,14.20
2024-05-09T22:05:57.037Z,14.16
2024-05-09T22:08:23.586Z,14.18
2024-05-09T22:10:51.131Z,14.02
2024-05-09T22:13:20.255Z,14.02
2024-05-09T22:15:47.039Z,14.12
2024-05-09T22:18:13.745Z,13.80
2024-05-09T22:20:45.050Z,13.98
2024-05-09T22:23:13.522Z,13.80
2024-05-09T22:25:40.142Z,14.03
2024-05-09T22:28:07.141Z,13.92
2024-05-09T22:30:37.868Z,13.74
2024-05-09T22:33:11.579Z,13.73
2024-05-09T22:35:39.393Z,13.49
2024-05-09T22:38:06.087Z,13.44
2024-05-09T22:40:42.342Z,13.49
2024-05-09T22:43:17.013Z,13.61
2024-05-09T22:45:43.895Z,13.51
2024-05-09T22:48:11.051Z,13.34
2024-05-09T22:50:37.645Z,13.32
2024-05-09T22:53:04.322Z,13.42
2024-05-09T22:55:30.829Z,13.30
2024-05-09T22:57:57.456Z,13.11
2024-05-09T23:02:53.662Z,13.14
2024-05-09T23:05:20.413Z,12.97
2024-05-09T23:07:47.012Z,12.62
2024-05-09T23:10:20.807Z,12.85
2024-05-09T23:12:51.515Z,12.80
2024-05-09T23:15:18.128Z,12.75
2024-05-09T23:17:45.184Z,12.76
2024-05-09T23:20:14.500Z,12.95
2024-05-09T23:22:41.231Z,12.78
2024-05-09T23:25:07.775Z,12.76
2024-05-09T23:27:34.606Z,12.75
2024-05-09T23:30:01.206Z,12.78
2024-05-09T23:32:27.884Z,12.27
2024-05-09T23:34:54.608Z,11.97
2024-05-09T23:37:21.502Z,12.13
2024-05-09T23:39:48.151Z,12.30
2024-05-09T23:42:14.712Z,12.36
2024-05-09T23:44:41.227Z,12.09
2024-05-09T23:47:10.674Z,12.34
2024-05-09T23:49:37.543Z,12.16
2024-05-09T23:52:04.437Z,12.42
2024-05-09T23:54:31.078Z,12.52
2024-05-09T23:56:57.667Z,12.60
2024-05-09T23:59:24.173Z,12.52
